sensor_id;sensor_type;location;lat;lon;timestamp;P1;durP1;ratioP1;P2;durP2;ratioP2
17852;SDS011;9052;53.494;14.376;2023-03-25T00:02:01;3.63;;;1.00;;
17852;SDS011;9052;53.494;14.376;2023-03-25T00:04:29;1.10;;;1.00;;
17852;SDS011;9052;53.494;14.376;2023-03-25T00:07:00;4.60;;;1.30;;
17852;SDS011;9052;53.494;14.376;2023-03-25T00:09:27;3.13;;;1.10;;
17852;SDS011;9052;53.494;14.376;2023-03-25T00:11:53;1.60;;;1.50;;
17852;SDS011;9052;53.494;14.376;2023-03-25T00:14:20;0.90;;;0.90;;
17852;SDS011;9052;53.494;14.376;2023-03-25T00:16:49;4.70;;;1.50;;
17852;SDS011;9052;53.494;14.376;2023-03-25T00:19:17;2.87;;;1.33;;
17852;SDS011;9052;53.494;14.376;2023-03-25T00:21:45;1.33;;;1.10;;
17852;SDS011;9052;53.494;14.376;2023-03-25T00:24:16;2.13;;;1.30;;
17852;SDS011;9052;53.494;14.376;2023-03-25T00:26:43;2.10;;;0.90;;
17852;SDS011;9052;53.494;14.376;2023-03-25T00:29:10;2.00;;;0.97;;
17852;SDS011;9052;53.494;14.376;2023-03-25T00:31:37;1.37;;;1.00;;
17852;SDS011;9052;53.494;14.376;2023-03-25T00:34:04;3.57;;;1.33;;
17852;SDS011;9052;53.494;14.376;2023-03-25T00:36:30;2.50;;;1.53;;
17852;SDS011;9052;53.494;14.376;2023-03-25T00:38:57;1.43;;;1.20;;
17852;SDS011;9052;53.494;14.376;2023-03-25T00:41:28;1.57;;;0.90;;
17852;SDS011;9052;53.494;14.376;2023-03-25T00:43:55;3.07;;;1.10;;
17852;SDS011;9052;53.494;14.376;2023-03-25T00:46:23;1.40;;;1.00;;
17852;SDS011;9052;53.494;14.376;2023-03-25T00:48:51;0.90;;;0.90;;
17852;SDS011;9052;53.494;14.376;2023-03-25T00:51:19;1.60;;;0.80;;
17852;SDS011;9052;53.494;14.376;2023-03-25T00:53:46;5.27;;;1.47;;
17852;SDS011;9052;53.494;14.376;2023-03-25T00:56:13;3.50;;;1.10;;
17852;SDS011;9052;53.494;14.376;2023-03-25T00:58:42;3.43;;;1.20;;
17852;SDS011;9052;53.494;14.376;2023-03-25T01:01:09;5.80;;;1.47;;
17852;SDS011;9052;53.494;14.376;2023-03-25T01:03:37;1.93;;;1.20;;
17852;SDS011;9052;53.494;14.376;2023-03-25T01:06:07;1.83;;;1.20;;
17852;SDS011;9052;53.494;14.376;2023-03-25T01:08:36;1.87;;;1.57;;
17852;SDS011;9052;53.494;14.376;2023-03-25T01:11:03;5.10;;;1.30;;
17852;SDS011;9052;53.494;14.376;2023-03-25T01:13:30;1.17;;;1.00;;
17852;SDS011;9052;53.494;14.376;2023-03-25T01:15:58;3.30;;;0.80;;
17852;SDS011;9052;53.494;14.376;2023-03-25T01:18:25;1.50;;;1.40;;
17852;SDS011;9052;53.494;14.376;2023-03-25T01:20:51;2.40;;;0.90;;
17852;SDS011;9052;53.494;14.376;2023-03-25T01:23:18;9.50;;;1.57;;
17852;SDS011;9052;53.494;14.376;2023-03-25T01:25:44;1.57;;;0.77;;
17852;SDS011;9052;53.494;14.376;2023-03-25T01:28:11;3.87;;;1.40;;
17852;SDS011;9052;53.494;14.376;2023-03-25T01:30:38;7.03;;;1.70;;
17852;SDS011;9052;53.494;14.376;2023-03-25T01:33:06;5.13;;;1.07;;
17852;SDS011;9052;53.494;14.376;2023-03-25T01:35:32;1.10;;;1.10;;
17852;SDS011;9052;53.494;14.376;2023-03-25T01:37:59;7.90;;;1.53;;
17852;SDS011;9052;53.494;14.376;2023-03-25T01:40:26;4.70;;;1.57;;
17852;SDS011;9052;53.494;14.376;2023-03-25T01:42:52;4.60;;;1.87;;
17852;SDS011;9052;53.494;14.376;2023-03-25T01:45:20;2.70;;;1.40;;
17852;SDS011;9052;53.494;14.376;2023-03-25T01:47:50;3.97;;;1.87;;
17852;SDS011;9052;53.494;14.376;2023-03-25T01:50:23;2.00;;;1.27;;
17852;SDS011;9052;53.494;14.376;2023-03-25T01:52:53;9.43;;;1.70;;
17852;SDS011;9052;53.494;14.376;2023-03-25T01:55:22;2.30;;;1.23;;
17852;SDS011;9052;53.494;14.376;2023-03-25T01:57:51;1.23;;;1.07;;
17852;SDS011;9052;53.494;14.376;2023-03-25T02:00:20;1.83;;;0.90;;
17852;SDS011;9052;53.494;14.376;2023-03-25T02:02:47;1.97;;;1.50;;
17852;SDS011;9052;53.494;14.376;2023-03-25T02:05:16;3.07;;;1.23;;
17852;SDS011;9052;53.494;14.376;2023-03-25T02:07:48;4.63;;;1.40;;
17852;SDS011;9052;53.494;14.376;2023-03-25T02:10:15;2.07;;;1.47;;
17852;SDS011;9052;53.494;14.376;2023-03-25T02:12:42;2.30;;;1.30;;
17852;SDS011;9052;53.494;14.376;2023-03-25T02:15:11;1.53;;;1.30;;
17852;SDS011;9052;53.494;14.376;2023-03-25T02:17:43;3.60;;;1.77;;
17852;SDS011;9052;53.494;14.376;2023-03-25T02:20:24;1.57;;;1.47;;
17852;SDS011;9052;53.494;14.376;2023-03-25T02:23:14;1.30;;;1.20;;
17852;SDS011;9052;53.494;14.376;2023-03-25T02:28:54;4.63;;;1.40;;
17852;SDS011;9052;53.494;14.376;2023-03-25T02:34:22;1.97;;;1.20;;
17852;SDS011;9052;53.494;14.376;2023-03-25T02:37:27;1.53;;;1.43;;
17852;SDS011;9052;53.494;14.376;2023-03-25T02:40:12;6.40;;;1.70;;
17852;SDS011;9052;53.494;14.376;2023-03-25T02:42:44;2.77;;;1.60;;
17852;SDS011;9052;53.494;14.376;2023-03-25T02:45:14;3.30;;;2.37;;
17852;SDS011;9052;53.494;14.376;2023-03-25T02:47:45;18.20;;;1.73;;
17852;SDS011;9052;53.494;14.376;2023-03-25T02:50:13;4.60;;;2.23;;
17852;SDS011;9052;53.494;14.376;2023-03-25T02:52:42;3.93;;;2.07;;
17852;SDS011;9052;53.494;14.376;2023-03-25T02:55:13;9.30;;;2.10;;
17852;SDS011;9052;53.494;14.376;2023-03-25T02:57:43;4.60;;;1.60;;
17852;SDS011;9052;53.494;14.376;2023-03-25T03:00:12;5.07;;;1.87;;
17852;SDS011;9052;53.494;14.376;2023-03-25T03:02:41;2.63;;;2.07;;
17852;SDS011;9052;53.494;14.376;2023-03-25T03:05:20;7.20;;;1.70;;
17852;SDS011;9052;53.494;14.376;2023-03-25T03:07:49;7.70;;;2.77;;
17852;SDS011;9052;53.494;14.376;2023-03-25T03:10:20;4.10;;;1.97;;
17852;SDS011;9052;53.494;14.376;2023-03-25T03:12:51;2.43;;;1.60;;
17852;SDS011;9052;53.494;14.376;2023-03-25T03:15:26;3.10;;;1.60;;
17852;SDS011;9052;53.494;14.376;2023-03-25T03:18:06;4.93;;;1.83;;
17852;SDS011;9052;53.494;14.376;2023-03-25T03:20:38;6.63;;;1.80;;
17852;SDS011;9052;53.494;14.376;2023-03-25T03:23:09;2.97;;;1.97;;
17852;SDS011;9052;53.494;14.376;2023-03-25T03:25:43;1.87;;;1.77;;
17852;SDS011;9052;53.494;14.376;2023-03-25T03:28:13;3.77;;;2.10;;
17852;SDS011;9052;53.494;14.376;2023-03-25T03:30:44;4.40;;;2.47;;
17852;SDS011;9052;53.494;14.376;2023-03-25T03:33:13;3.03;;;1.70;;
17852;SDS011;9052;53.494;14.376;2023-03-25T03:35:46;5.67;;;1.90;;
17852;SDS011;9052;53.494;14.376;2023-03-25T03:38:18;4.20;;;1.73;;
17852;SDS011;9052;53.494;14.376;2023-03-25T03:40:48;2.13;;;1.70;;
17852;SDS011;9052;53.494;14.376;2023-03-25T03:43:18;4.40;;;2.00;;
17852;SDS011;9052;53.494;14.376;2023-03-25T03:45:49;5.73;;;2.13;;
17852;SDS011;9052;53.494;14.376;2023-03-25T03:48:19;2.77;;;1.90;;
17852;SDS011;9052;53.494;14.376;2023-03-25T03:50:49;16.53;;;2.10;;
17852;SDS011;9052;53.494;14.376;2023-03-25T03:53:19;5.50;;;2.70;;
17852;SDS011;9052;53.494;14.376;2023-03-25T03:55:49;3.07;;;1.73;;
17852;SDS011;9052;53.494;14.376;2023-03-25T03:58:18;4.30;;;1.83;;
17852;SDS011;9052;53.494;14.376;2023-03-25T04:00:49;5.80;;;2.40;;
17852;SDS011;9052;53.494;14.376;2023-03-25T04:03:18;3.00;;;1.60;;
17852;SDS011;9052;53.494;14.376;2023-03-25T04:05:50;8.33;;;2.87;;
17852;SDS011;9052;53.494;14.376;2023-03-25T04:08:24;2.43;;;2.23;;
17852;SDS011;9052;53.494;14.376;2023-03-25T04:10:54;5.60;;;2.20;;
17852;SDS011;9052;53.494;14.376;2023-03-25T04:13:23;3.67;;;1.90;;
17852;SDS011;9052;53.494;14.376;2023-03-25T04:15:51;5.77;;;1.93;;
17852;SDS011;9052;53.494;14.376;2023-03-25T04:18:18;2.57;;;2.00;;
17852;SDS011;9052;53.494;14.376;2023-03-25T04:20:47;5.90;;;1.87;;
17852;SDS011;9052;53.494;14.376;2023-03-25T04:23:14;2.37;;;1.83;;
17852;SDS011;9052;53.494;14.376;2023-03-25T04:25:43;2.00;;;1.90;;
17852;SDS011;9052;53.494;14.376;2023-03-25T04:28:11;2.80;;;2.40;;
17852;SDS011;9052;53.494;14.376;2023-03-25T04:30:42;2.70;;;2.20;;
17852;SDS011;9052;53.494;14.376;2023-03-25T04:33:10;4.40;;;2.27;;
17852;SDS011;9052;53.494;14.376;2023-03-25T04:35:37;4.73;;;2.27;;
17852;SDS011;9052;53.494;14.376;2023-03-25T04:38:04;4.33;;;2.13;;
17852;SDS011;9052;53.494;14.376;2023-03-25T04:40:31;7.43;;;1.90;;
17852;SDS011;9052;53.494;14.376;2023-03-25T04:42:59;8.93;;;2.73;;
17852;SDS011;9052;53.494;14.376;2023-03-25T04:45:26;5.43;;;2.00;;
17852;SDS011;9052;53.494;14.376;2023-03-25T04:47:54;1.83;;;1.53;;
17852;SDS011;9052;53.494;14.376;2023-03-25T04:50:22;3.80;;;1.73;;
17852;SDS011;9052;53.494;14.376;2023-03-25T04:52:51;1.90;;;1.80;;
17852;SDS011;9052;53.494;14.376;2023-03-25T04:55:19;10.80;;;2.70;;
17852;SDS011;9052;53.494;14.376;2023-03-25T04:57:46;2.70;;;2.10;;
17852;SDS011;9052;53.494;14.376;2023-03-25T05:00:16;2.63;;;2.43;;
17852;SDS011;9052;53.494;14.376;2023-03-25T05:02:45;2.20;;;2.00;;
17852;SDS011;9052;53.494;14.376;2023-03-25T05:05:13;3.13;;;2.47;;
17852;SDS011;9052;53.494;14.376;2023-03-25T05:07:42;7.60;;;2.10;;
17852;SDS011;9052;53.494;14.376;2023-03-25T05:10:10;6.40;;;2.13;;
17852;SDS011;9052;53.494;14.376;2023-03-25T05:12:37;6.33;;;2.57;;
17852;SDS011;9052;53.494;14.376;2023-03-25T05:15:05;7.10;;;3.23;;
17852;SDS011;9052;53.494;14.376;2023-03-25T05:17:34;2.50;;;2.33;;
17852;SDS011;9052;53.494;14.376;2023-03-25T05:20:00;5.03;;;2.93;;
17852;SDS011;9052;53.494;14.376;2023-03-25T05:22:28;2.53;;;2.20;;
17852;SDS011;9052;53.494;14.376;2023-03-25T05:24:55;3.07;;;2.40;;
17852;SDS011;9052;53.494;14.376;2023-03-25T05:27:22;3.03;;;2.83;;
17852;SDS011;9052;53.494;14.376;2023-03-25T05:29:49;3.33;;;2.33;;
17852;SDS011;9052;53.494;14.376;2023-03-25T05:32:16;4.40;;;2.80;;
17852;SDS011;9052;53.494;14.376;2023-03-25T05:34:44;5.23;;;2.13;;
17852;SDS011;9052;53.494;14.376;2023-03-25T05:37:11;2.80;;;2.60;;
17852;SDS011;9052;53.494;14.376;2023-03-25T05:39:38;7.00;;;2.23;;
17852;SDS011;9052;53.494;14.376;2023-03-25T05:42:05;5.83;;;2.70;;
17852;SDS011;9052;53.494;14.376;2023-03-25T05:44:34;3.00;;;2.57;;
17852;SDS011;9052;53.494;14.376;2023-03-25T05:47:02;17.37;;;3.93;;
17852;SDS011;9052;53.494;14.376;2023-03-25T05:49:30;3.77;;;2.30;;
17852;SDS011;9052;53.494;14.376;2023-03-25T05:51:58;6.40;;;2.43;;
17852;SDS011;9052;53.494;14.376;2023-03-25T05:54:25;6.27;;;3.67;;
17852;SDS011;9052;53.494;14.376;2023-03-25T05:56:52;4.50;;;3.10;;
17852;SDS011;9052;53.494;14.376;2023-03-25T05:59:19;6.67;;;2.67;;
17852;SDS011;9052;53.494;14.376;2023-03-25T06:01:45;5.53;;;2.30;;
17852;SDS011;9052;53.494;14.376;2023-03-25T06:04:14;6.63;;;2.60;;
17852;SDS011;9052;53.494;14.376;2023-03-25T06:06:40;2.60;;;2.40;;
17852;SDS011;9052;53.494;14.376;2023-03-25T06:09:09;11.43;;;3.07;;
17852;SDS011;9052;53.494;14.376;2023-03-25T06:11:36;3.50;;;2.60;;
17852;SDS011;9052;53.494;14.376;2023-03-25T06:14:10;7.53;;;2.77;;
17852;SDS011;9052;53.494;14.376;2023-03-25T06:16:37;3.33;;;2.20;;
17852;SDS011;9052;53.494;14.376;2023-03-25T06:19:04;4.33;;;2.30;;
17852;SDS011;9052;53.494;14.376;2023-03-25T06:21:33;4.40;;;1.80;;
17852;SDS011;9052;53.494;14.376;2023-03-25T06:24:00;1.70;;;1.43;;
17852;SDS011;9052;53.494;14.376;2023-03-25T06:26:28;3.53;;;1.90;;
17852;SDS011;9052;53.494;14.376;2023-03-25T06:28:56;4.20;;;2.00;;
17852;SDS011;9052;53.494;14.376;2023-03-25T06:31:24;3.37;;;1.50;;
17852;SDS011;9052;53.494;14.376;2023-03-25T06:33:52;7.37;;;2.60;;
17852;SDS011;9052;53.494;14.376;2023-03-25T06:36:20;2.70;;;1.63;;
17852;SDS011;9052;53.494;14.376;2023-03-25T06:38:47;5.03;;;2.13;;
17852;SDS011;9052;53.494;14.376;2023-03-25T06:41:15;2.70;;;1.77;;
17852;SDS011;9052;53.494;14.376;2023-03-25T06:43:45;4.03;;;1.80;;
17852;SDS011;9052;53.494;14.376;2023-03-25T06:46:12;4.03;;;1.73;;
17852;SDS011;9052;53.494;14.376;2023-03-25T06:48:39;3.50;;;1.80;;
17852;SDS011;9052;53.494;14.376;2023-03-25T06:51:06;4.80;;;1.63;;
17852;SDS011;9052;53.494;14.376;2023-03-25T06:53:33;1.37;;;1.27;;
17852;SDS011;9052;53.494;14.376;2023-03-25T06:56:00;2.00;;;1.37;;
17852;SDS011;9052;53.494;14.376;2023-03-25T06:58:26;2.43;;;1.70;;
17852;SDS011;9052;53.494;14.376;2023-03-25T07:01:00;3.90;;;1.17;;
17852;SDS011;9052;53.494;14.376;2023-03-25T07:03:30;3.67;;;1.70;;
17852;SDS011;9052;53.494;14.376;2023-03-25T07:05:56;4.73;;;1.97;;
17852;SDS011;9052;53.494;14.376;2023-03-25T07:08:23;3.13;;;1.53;;
17852;SDS011;9052;53.494;14.376;2023-03-25T07:10:50;2.03;;;1.50;;
17852;SDS011;9052;53.494;14.376;2023-03-25T07:13:16;4.50;;;1.77;;
17852;SDS011;9052;53.494;14.376;2023-03-25T07:15:43;4.27;;;1.73;;
17852;SDS011;9052;53.494;14.376;2023-03-25T07:18:11;3.07;;;1.70;;
17852;SDS011;9052;53.494;14.376;2023-03-25T07:20:38;4.07;;;1.20;;
17852;SDS011;9052;53.494;14.376;2023-03-25T07:23:04;3.53;;;1.40;;
17852;SDS011;9052;53.494;14.376;2023-03-25T07:25:31;12.43;;;1.93;;
17852;SDS011;9052;53.494;14.376;2023-03-25T07:27:58;4.03;;;1.10;;
17852;SDS011;9052;53.494;14.376;2023-03-25T07:30:24;4.93;;;1.20;;
17852;SDS011;9052;53.494;14.376;2023-03-25T07:32:51;2.47;;;1.40;;
17852;SDS011;9052;53.494;14.376;2023-03-25T07:35:19;7.23;;;1.53;;
17852;SDS011;9052;53.494;14.376;2023-03-25T07:37:46;3.90;;;1.90;;
17852;SDS011;9052;53.494;14.376;2023-03-25T07:40:13;2.73;;;1.63;;
17852;SDS011;9052;53.494;14.376;2023-03-25T07:42:40;2.70;;;1.30;;
17852;SDS011;9052;53.494;14.376;2023-03-25T07:45:07;6.77;;;1.30;;
17852;SDS011;9052;53.494;14.376;2023-03-25T07:47:34;1.83;;;1.43;;
17852;SDS011;9052;53.494;14.376;2023-03-25T07:50:01;2.87;;;1.10;;
17852;SDS011;9052;53.494;14.376;2023-03-25T07:52:29;2.60;;;1.30;;
17852;SDS011;9052;53.494;14.376;2023-03-25T07:54:55;2.10;;;1.00;;
17852;SDS011;9052;53.494;14.376;2023-03-25T07:57:24;2.10;;;1.37;;
17852;SDS011;9052;53.494;14.376;2023-03-25T07:59:51;2.33;;;1.00;;
17852;SDS011;9052;53.494;14.376;2023-03-25T08:02:17;2.10;;;1.30;;
17852;SDS011;9052;53.494;14.376;2023-03-25T08:04:44;9.30;;;1.70;;
17852;SDS011;9052;53.494;14.376;2023-03-25T08:07:11;3.53;;;1.23;;
17852;SDS011;9052;53.494;14.376;2023-03-25T08:09:39;4.33;;;1.77;;
17852;SDS011;9052;53.494;14.376;2023-03-25T08:12:06;2.10;;;1.33;;
17852;SDS011;9052;53.494;14.376;2023-03-25T08:14:33;3.63;;;2.50;;
17852;SDS011;9052;53.494;14.376;2023-03-25T08:17:00;6.40;;;1.37;;
17852;SDS011;9052;53.494;14.376;2023-03-25T08:19:27;5.13;;;3.93;;
17852;SDS011;9052;53.494;14.376;2023-03-25T08:21:53;2.10;;;1.40;;
17852;SDS011;9052;53.494;14.376;2023-03-25T08:24:20;2.70;;;1.77;;
17852;SDS011;9052;53.494;14.376;2023-03-25T08:26:50;5.10;;;4.50;;
17852;SDS011;9052;53.494;14.376;2023-03-25T08:29:18;11.43;;;1.60;;
17852;SDS011;9052;53.494;14.376;2023-03-25T08:31:45;4.30;;;1.90;;
17852;SDS011;9052;53.494;14.376;2023-03-25T08:34:16;2.37;;;1.50;;
17852;SDS011;9052;53.494;14.376;2023-03-25T08:36:43;6.20;;;1.27;;
17852;SDS011;9052;53.494;14.376;2023-03-25T08:39:10;2.90;;;1.80;;
17852;SDS011;9052;53.494;14.376;2023-03-25T08:41:41;2.30;;;1.70;;
17852;SDS011;9052;53.494;14.376;2023-03-25T08:44:09;2.03;;;1.40;;
17852;SDS011;9052;53.494;14.376;2023-03-25T08:46:36;1.90;;;1.27;;
17852;SDS011;9052;53.494;14.376;2023-03-25T08:49:03;4.40;;;2.07;;
17852;SDS011;9052;53.494;14.376;2023-03-25T08:51:30;3.70;;;1.27;;
17852;SDS011;9052;53.494;14.376;2023-03-25T08:53:57;1.80;;;0.90;;
17852;SDS011;9052;53.494;14.376;2023-03-25T08:56:25;2.50;;;1.03;;
17852;SDS011;9052;53.494;14.376;2023-03-25T08:58:51;4.53;;;1.50;;
17852;SDS011;9052;53.494;14.376;2023-03-25T09:01:19;2.63;;;0.93;;
17852;SDS011;9052;53.494;14.376;2023-03-25T09:03:48;1.50;;;0.97;;
17852;SDS011;9052;53.494;14.376;2023-03-25T09:06:15;4.67;;;1.93;;
17852;SDS011;9052;53.494;14.376;2023-03-25T09:08:42;2.20;;;1.30;;
17852;SDS011;9052;53.494;14.376;2023-03-25T09:11:08;2.77;;;0.97;;
17852;SDS011;9052;53.494;14.376;2023-03-25T09:13:36;5.50;;;1.60;;
17852;SDS011;9052;53.494;14.376;2023-03-25T09:16:02;2.87;;;1.30;;
17852;SDS011;9052;53.494;14.376;2023-03-25T09:18:31;3.07;;;1.47;;
17852;SDS011;9052;53.494;14.376;2023-03-25T09:20:58;3.83;;;1.47;;
17852;SDS011;9052;53.494;14.376;2023-03-25T09:23:25;1.67;;;0.90;;
17852;SDS011;9052;53.494;14.376;2023-03-25T09:25:51;5.87;;;1.83;;
17852;SDS011;9052;53.494;14.376;2023-03-25T09:28:18;1.73;;;1.20;;
17852;SDS011;9052;53.494;14.376;2023-03-25T09:30:45;5.20;;;1.23;;
17852;SDS011;9052;53.494;14.376;2023-03-25T09:33:12;4.97;;;1.53;;
17852;SDS011;9052;53.494;14.376;2023-03-25T09:35:41;3.00;;;1.40;;
17852;SDS011;9052;53.494;14.376;2023-03-25T09:38:07;2.70;;;0.90;;
17852;SDS011;9052;53.494;14.376;2023-03-25T09:40:34;1.70;;;1.33;;
17852;SDS011;9052;53.494;14.376;2023-03-25T09:43:06;4.87;;;1.20;;
17852;SDS011;9052;53.494;14.376;2023-03-25T09:45:47;2.43;;;1.70;;
17852;SDS011;9052;53.494;14.376;2023-03-25T09:48:18;1.50;;;1.40;;
17852;SDS011;9052;53.494;14.376;2023-03-25T09:50:51;1.50;;;1.33;;
17852;SDS011;9052;53.494;14.376;2023-03-25T09:53:22;2.17;;;0.90;;
17852;SDS011;9052;53.494;14.376;2023-03-25T09:55:52;6.50;;;1.97;;
17852;SDS011;9052;53.494;14.376;2023-03-25T09:58:26;3.37;;;1.40;;
17852;SDS011;9052;53.494;14.376;2023-03-25T10:00:55;4.93;;;1.70;;
17852;SDS011;9052;53.494;14.376;2023-03-25T10:03:26;2.80;;;1.27;;
17852;SDS011;9052;53.494;14.376;2023-03-25T10:06:00;5.00;;;1.60;;
17852;SDS011;9052;53.494;14.376;2023-03-25T10:08:33;3.67;;;1.70;;
17852;SDS011;9052;53.494;14.376;2023-03-25T10:11:06;4.30;;;1.53;;
17852;SDS011;9052;53.494;14.376;2023-03-25T10:13:39;1.93;;;1.43;;
17852;SDS011;9052;53.494;14.376;2023-03-25T10:16:11;4.07;;;1.40;;
17852;SDS011;9052;53.494;14.376;2023-03-25T10:18:52;6.53;;;1.40;;
17852;SDS011;9052;53.494;14.376;2023-03-25T10:21:27;1.50;;;1.10;;
17852;SDS011;9052;53.494;14.376;2023-03-25T10:24:01;2.40;;;1.37;;
17852;SDS011;9052;53.494;14.376;2023-03-25T10:26:36;2.50;;;1.03;;
17852;SDS011;9052;53.494;14.376;2023-03-25T10:29:09;5.00;;;1.70;;
17852;SDS011;9052;53.494;14.376;2023-03-25T10:31:39;3.67;;;1.30;;
17852;SDS011;9052;53.494;14.376;2023-03-25T10:34:12;3.40;;;1.70;;
17852;SDS011;9052;53.494;14.376;2023-03-25T10:36:45;4.67;;;1.57;;
17852;SDS011;9052;53.494;14.376;2023-03-25T10:39:13;3.63;;;1.47;;
17852;SDS011;9052;53.494;14.376;2023-03-25T10:41:45;4.20;;;1.10;;
17852;SDS011;9052;53.494;14.376;2023-03-25T10:44:13;3.43;;;1.30;;
17852;SDS011;9052;53.494;14.376;2023-03-25T10:46:41;2.13;;;0.80;;
17852;SDS011;9052;53.494;14.376;2023-03-25T10:49:12;4.77;;;1.67;;
17852;SDS011;9052;53.494;14.376;2023-03-25T10:51:40;3.60;;;1.70;;
17852;SDS011;9052;53.494;14.376;2023-03-25T10:54:08;6.57;;;1.50;;
17852;SDS011;9052;53.494;14.376;2023-03-25T10:56:36;7.90;;;1.60;;
17852;SDS011;9052;53.494;14.376;2023-03-25T10:59:05;3.80;;;0.97;;
17852;SDS011;9052;53.494;14.376;2023-03-25T11:01:38;3.90;;;1.40;;
17852;SDS011;9052;53.494;14.376;2023-03-25T11:04:07;3.67;;;2.53;;
17852;SDS011;9052;53.494;14.376;2023-03-25T11:06:36;3.80;;;1.33;;
17852;SDS011;9052;53.494;14.376;2023-03-25T11:09:13;2.90;;;1.33;;
17852;SDS011;9052;53.494;14.376;2023-03-25T11:11:42;1.43;;;1.10;;
17852;SDS011;9052;53.494;14.376;2023-03-25T11:14:10;7.57;;;1.63;;
17852;SDS011;9052;53.494;14.376;2023-03-25T11:16:39;1.40;;;1.30;;
17852;SDS011;9052;53.494;14.376;2023-03-25T11:19:12;1.70;;;1.40;;
17852;SDS011;9052;53.494;14.376;2023-03-25T11:21:42;7.53;;;1.67;;
17852;SDS011;9052;53.494;14.376;2023-03-25T11:24:14;3.00;;;1.80;;
17852;SDS011;9052;53.494;14.376;2023-03-25T11:26:43;4.97;;;1.40;;
17852;SDS011;9052;53.494;14.376;2023-03-25T11:29:13;4.13;;;1.30;;
17852;SDS011;9052;53.494;14.376;2023-03-25T11:31:41;3.17;;;1.33;;
17852;SDS011;9052;53.494;14.376;2023-03-25T11:34:13;1.47;;;1.30;;
17852;SDS011;9052;53.494;14.376;2023-03-25T11:36:47;10.13;;;1.67;;
17852;SDS011;9052;53.494;14.376;2023-03-25T11:39:25;9.43;;;2.37;;
17852;SDS011;9052;53.494;14.376;2023-03-25T11:41:56;3.03;;;1.10;;
17852;SDS011;9052;53.494;14.376;2023-03-25T11:44:25;4.53;;;1.60;;
17852;SDS011;9052;53.494;14.376;2023-03-25T11:46:53;3.30;;;0.97;;
17852;SDS011;9052;53.494;14.376;2023-03-25T11:49:22;2.70;;;1.30;;
17852;SDS011;9052;53.494;14.376;2023-03-25T11:51:50;1.47;;;1.10;;
17852;SDS011;9052;53.494;14.376;2023-03-25T11:54:22;3.20;;;1.20;;
17852;SDS011;9052;53.494;14.376;2023-03-25T11:56:53;2.60;;;1.00;;
17852;SDS011;9052;53.494;14.376;2023-03-25T11:59:21;2.23;;;0.97;;
17852;SDS011;9052;53.494;14.376;2023-03-25T12:01:50;2.60;;;0.80;;
17852;SDS011;9052;53.494;14.376;2023-03-25T12:04:18;1.20;;;0.80;;
17852;SDS011;9052;53.494;14.376;2023-03-25T12:06:56;11.83;;;1.07;;
17852;SDS011;9052;53.494;14.376;2023-03-25T12:09:26;1.80;;;0.97;;
17852;SDS011;9052;53.494;14.376;2023-03-25T12:14:49;3.47;;;1.07;;
17852;SDS011;9052;53.494;14.376;2023-03-25T12:17:21;1.73;;;0.97;;
17852;SDS011;9052;53.494;14.376;2023-03-25T12:19:57;4.40;;;1.33;;
17852;SDS011;9052;53.494;14.376;2023-03-25T12:22:36;2.23;;;1.07;;
17852;SDS011;9052;53.494;14.376;2023-03-25T12:25:16;3.03;;;0.77;;
17852;SDS011;9052;53.494;14.376;2023-03-25T12:28:04;3.03;;;0.73;;
17852;SDS011;9052;53.494;14.376;2023-03-25T12:30:44;3.50;;;0.90;;
17852;SDS011;9052;53.494;14.376;2023-03-25T12:33:18;1.20;;;0.73;;
17852;SDS011;9052;53.494;14.376;2023-03-25T12:35:55;1.10;;;0.67;;
17852;SDS011;9052;53.494;14.376;2023-03-25T12:38:33;2.90;;;1.23;;
17852;SDS011;9052;53.494;14.376;2023-03-25T12:41:14;4.30;;;1.60;;
17852;SDS011;9052;53.494;14.376;2023-03-25T12:44:02;0.90;;;0.70;;
17852;SDS011;9052;53.494;14.376;2023-03-25T12:49:48;2.43;;;1.93;;
17852;SDS011;9052;53.494;14.376;2023-03-25T12:52:32;1.00;;;0.90;;
17852;SDS011;9052;53.494;14.376;2023-03-25T12:55:22;1.80;;;0.97;;
17852;SDS011;9052;53.494;14.376;2023-03-25T12:57:58;1.10;;;1.00;;
17852;SDS011;9052;53.494;14.376;2023-03-25T13:00:39;1.03;;;0.80;;
17852;SDS011;9052;53.494;14.376;2023-03-25T13:03:18;2.37;;;1.10;;
17852;SDS011;9052;53.494;14.376;2023-03-25T13:05:52;2.30;;;1.17;;
17852;SDS011;9052;53.494;14.376;2023-03-25T13:08:21;2.93;;;0.70;;
17852;SDS011;9052;53.494;14.376;2023-03-25T13:10:54;2.50;;;0.90;;
17852;SDS011;9052;53.494;14.376;2023-03-25T13:13:24;1.43;;;0.70;;
17852;SDS011;9052;53.494;14.376;2023-03-25T13:15:54;1.63;;;1.10;;
17852;SDS011;9052;53.494;14.376;2023-03-25T13:18:24;0.97;;;0.70;;
17852;SDS011;9052;53.494;14.376;2023-03-25T13:20:56;1.90;;;0.60;;
17852;SDS011;9052;53.494;14.376;2023-03-25T13:23:26;0.50;;;0.50;;
17852;SDS011;9052;53.494;14.376;2023-03-25T13:25:55;0.90;;;0.53;;
17852;SDS011;9052;53.494;14.376;2023-03-25T13:28:26;0.97;;;0.63;;
17852;SDS011;9052;53.494;14.376;2023-03-25T13:30:54;1.07;;;0.50;;
17852;SDS011;9052;53.494;14.376;2023-03-25T13:33:22;1.53;;;1.00;;
17852;SDS011;9052;53.494;14.376;2023-03-25T13:35:51;1.90;;;0.80;;
17852;SDS011;9052;53.494;14.376;2023-03-25T13:38:20;2.00;;;1.20;;
17852;SDS011;9052;53.494;14.376;2023-03-25T13:40:53;5.60;;;3.50;;
17852;SDS011;9052;53.494;14.376;2023-03-25T13:43:26;2.17;;;1.97;;
17852;SDS011;9052;53.494;14.376;2023-03-25T13:45:57;0.80;;;0.80;;
17852;SDS011;9052;53.494;14.376;2023-03-25T13:48:29;1.13;;;0.70;;
17852;SDS011;9052;53.494;14.376;2023-03-25T13:51:00;2.47;;;0.83;;
17852;SDS011;9052;53.494;14.376;2023-03-25T13:53:28;1.53;;;0.70;;
17852;SDS011;9052;53.494;14.376;2023-03-25T13:56:00;1.33;;;1.10;;
17852;SDS011;9052;53.494;14.376;2023-03-25T13:58:48;1.20;;;0.80;;
17852;SDS011;9052;53.494;14.376;2023-03-25T14:04:17;1.27;;;0.70;;
17852;SDS011;9052;53.494;14.376;2023-03-25T14:07:01;1.70;;;0.80;;
17852;SDS011;9052;53.494;14.376;2023-03-25T14:09:55;2.10;;;0.83;;
17852;SDS011;9052;53.494;14.376;2023-03-25T14:12:36;0.83;;;0.83;;
17852;SDS011;9052;53.494;14.376;2023-03-25T14:15:08;1.33;;;1.03;;
17852;SDS011;9052;53.494;14.376;2023-03-25T14:17:36;1.00;;;0.80;;
17852;SDS011;9052;53.494;14.376;2023-03-25T14:20:04;5.07;;;1.17;;
17852;SDS011;9052;53.494;14.376;2023-03-25T14:22:36;3.00;;;1.40;;
17852;SDS011;9052;53.494;14.376;2023-03-25T14:25:11;3.20;;;1.47;;
17852;SDS011;9052;53.494;14.376;2023-03-25T14:27:46;2.33;;;1.43;;
17852;SDS011;9052;53.494;14.376;2023-03-25T14:30:17;0.97;;;0.70;;
17852;SDS011;9052;53.494;14.376;2023-03-25T14:32:45;1.07;;;0.97;;
17852;SDS011;9052;53.494;14.376;2023-03-25T14:38:19;0.63;;;0.60;;
17852;SDS011;9052;53.494;14.376;2023-03-25T14:41:12;0.70;;;0.50;;
17852;SDS011;9052;53.494;14.376;2023-03-25T14:43:42;0.50;;;0.40;;
17852;SDS011;9052;53.494;14.376;2023-03-25T14:46:15;1.23;;;0.67;;
17852;SDS011;9052;53.494;14.376;2023-03-25T14:48:46;3.00;;;0.90;;
17852;SDS011;9052;53.494;14.376;2023-03-25T14:51:40;1.80;;;0.83;;
17852;SDS011;9052;53.494;14.376;2023-03-25T14:54:14;2.57;;;0.67;;
17852;SDS011;9052;53.494;14.376;2023-03-25T14:56:48;0.80;;;0.50;;
17852;SDS011;9052;53.494;14.376;2023-03-25T14:59:19;2.00;;;0.60;;
17852;SDS011;9052;53.494;14.376;2023-03-25T15:01:49;0.80;;;0.60;;
17852;SDS011;9052;53.494;14.376;2023-03-25T15:04:22;2.00;;;1.90;;
17852;SDS011;9052;53.494;14.376;2023-03-25T15:06:50;1.47;;;1.17;;
17852;SDS011;9052;53.494;14.376;2023-03-25T15:09:17;2.47;;;2.07;;
17852;SDS011;9052;53.494;14.376;2023-03-25T15:11:50;2.07;;;1.03;;
17852;SDS011;9052;53.494;14.376;2023-03-25T15:14:19;0.90;;;0.90;;
17852;SDS011;9052;53.494;14.376;2023-03-25T15:16:56;1.20;;;1.00;;
17852;SDS011;9052;53.494;14.376;2023-03-25T15:19:25;7.07;;;0.93;;
17852;SDS011;9052;53.494;14.376;2023-03-25T15:24:51;1.17;;;0.93;;
17852;SDS011;9052;53.494;14.376;2023-03-25T15:30:16;3.17;;;1.10;;